Terminal Aerodrome Forecast
Issued by NWS

Home | Current Version | Previous Version | Text Only | Print | Product List | Glossary On
Versions: 1 2 3 4 5 6 7 8 9 10 11 12 13 14 15 16 17 18 19 20 21 22 23 24 25 26 27 28 29 30 31 32 33 34 35 36 37 38 39 40 41 42 43 44 45 46 47 48 49 50
539
FTUS45 KBOU 311954 AAA
TAFBJC
TAF AMD
KBJC 311954Z 3120/0118 05008KT P6SM FEW040 SCT080 BKN180
     FM312200 03010KT P6SM VCTS SCT030CB BKN060
      TEMPO 3123/0103 5SM SHRA OVC030
     FM010300 VRB05KT P6SM SCT020 BKN035
      TEMPO 0103/0106 -SHRA
     FM010800 21005KT P6SM VCFG SCT020 BKN035
     FM011000 18007KT P6SM SCT015 BKN040
     FM011500 12008KT P6SM SCT050 SCT080=

USA.gov is the U.S. government's official web portal to all federal, state and local government web resources and services.